Time;durP1;ratioP1;P1;durP2;ratioP2;P2;SDS_P1;SDS_P2;PMS_P1;PMS_P2;Temp;Humidity;BMP_temperature;BMP_pressure;BME280_temperature;BME280_humidity;BME280_pressure;Samples;Min_cycle;Max_cycle;Signal;HPM_P1;HPM_P2
2022/01/14 00:02:04;;;;;;;0.30;0.30;;;1.40;99.90;;;;;;5015658;28;20216;-78
2022/01/14 00:04:31;;;;;;;2.50;1.20;;;1.30;99.90;;;;;;5017827;28;20183;-78
2022/01/14 00:06:56;;;;;;;0.90;0.50;;;1.50;99.90;;;;;;4997960;28;20294;-78
2022/01/14 00:09:22;;;;;;;0.37;0.37;;;1.60;99.90;;;;;;5000715;28;20268;-79
2022/01/14 00:11:54;;;;;;;0.30;0.30;;;1.40;99.90;;;;;;5018375;28;20744;-79
2022/01/14 00:14:25;;;;;;;0.40;0.40;;;1.30;99.90;;;;;;4999906;28;20214;-79
2022/01/14 00:16:51;;;;;;;0.90;0.83;;;1.20;99.90;;;;;;5015374;28;20223;-79
2022/01/14 00:19:18;;;;;;;0.60;0.60;;;1.40;99.90;;;;;;5017587;28;20271;-80
2022/01/14 00:21:45;;;;;;;0.70;0.50;;;1.20;99.90;;;;;;5000337;28;20680;-78
2022/01/14 00:34:43;;;;;;;0.13;0.13;;;1.00;99.90;;;;;;5016476;28;20587;-79
2022/01/14 00:37:09;;;;;;;2.17;0.30;;;1.00;99.90;;;;;;4998511;28;20290;-79
2022/01/14 00:39:34;;;;;;;1.10;1.03;;;1.10;99.90;;;;;;5017662;28;20234;-78
2022/01/14 00:42:00;;;;;;;0.30;0.30;;;1.20;99.90;;;;;;4999407;28;20296;-79
2022/01/14 00:44:25;;;;;;;0.67;0.43;;;1.50;99.90;;;;;;5000648;28;20188;-79
2022/01/14 00:46:51;;;;;;;0.20;0.20;;;1.70;99.90;;;;;;4998414;28;20206;-78
2022/01/14 00:49:18;;;;;;;0.47;0.47;;;1.90;99.90;;;;;;5017028;28;20196;-79
2022/01/14 00:51:44;;;;;;;1.00;0.80;;;2.00;99.90;;;;;;5000407;28;20217;-80
2022/01/14 00:54:11;;;;;;;0.77;0.20;;;2.10;99.90;;;;;;5017260;28;20210;-80
2022/01/14 00:59:15;;;;;;;1.97;0.93;;;2.40;99.90;;;;;;5018435;28;20180;-79
2022/01/14 01:01:49;;;;;;;1.03;0.73;;;2.50;99.90;;;;;;5015717;28;20175;-79
2022/01/14 01:04:21;;;;;;;0.83;0.83;;;2.60;99.90;;;;;;5017386;28;20180;-79
2022/01/14 01:06:48;;;;;;;0.27;0.27;;;2.60;99.90;;;;;;5018231;28;20735;-79
2022/01/14 01:09:15;;;;;;;0.33;0.33;;;2.60;99.90;;;;;;5017939;28;20180;-79
2022/01/14 01:12:09;;;;;;;0.53;0.53;;;2.60;99.90;;;;;;5017696;28;20259;-79
2022/01/14 01:14:39;;;;;;;4.00;0.30;;;2.60;99.90;;;;;;5015643;28;20254;-79
2022/01/14 01:17:04;;;;;;;0.53;0.47;;;2.70;99.90;;;;;;4997694;28;20198;-79
2022/01/14 01:19:30;;;;;;;0.83;0.60;;;2.60;99.90;;;;;;5016929;28;20250;-80
2022/01/14 01:21:55;;;;;;;1.77;0.67;;;2.10;99.90;;;;;;4999721;28;20184;-80
2022/01/14 01:24:21;;;;;;;0.50;0.50;;;2.20;99.90;;;;;;5015370;28;20266;-80
2022/01/14 01:26:49;;;;;;;0.30;0.30;;;2.30;99.90;;;;;;4999066;28;20210;-81
2022/01/14 01:29:42;;;;;;;0.77;0.50;;;2.20;99.90;;;;;;5017992;28;20241;-79
2022/01/14 01:32:07;;;;;;;0.30;0.30;;;2.00;99.90;;;;;;5016354;28;20249;-79
2022/01/14 01:34:33;;;;;;;0.30;0.30;;;1.80;99.90;;;;;;5018914;28;20882;-80
2022/01/14 01:37:01;;;;;;;0.37;0.37;;;1.50;99.90;;;;;;5015964;28;20385;-79
2022/01/14 01:39:29;;;;;;;1.10;0.30;;;1.40;99.90;;;;;;4999775;28;20212;-80
2022/01/14 01:42:00;;;;;;;0.40;0.40;;;1.40;99.90;;;;;;4998394;28;20556;-79
2022/01/14 01:44:28;;;;;;;0.40;0.40;;;1.30;99.90;;;;;;5006888;28;20181;-79
2022/01/14 01:46:54;;;;;;;0.67;0.17;;;1.30;99.90;;;;;;5016844;28;20202;-79
2022/01/14 01:49:28;;;;;;;1.03;1.03;;;1.40;99.90;;;;;;4998502;28;20558;-79
2022/01/14 01:51:54;;;;;;;0.10;0.10;;;1.70;99.90;;;;;;5015513;28;20193;-79
2022/01/14 01:54:21;;;;;;;0.83;0.77;;;1.90;99.90;;;;;;4998704;28;21424;-79
2022/01/14 01:56:49;;;;;;;0.17;0.17;;;2.10;99.90;;;;;;5016566;28;20211;-79
2022/01/14 01:59:15;;;;;;;0.50;0.50;;;2.20;99.90;;;;;;5015186;28;20195;-79
2022/01/14 02:01:41;;;;;;;0.37;0.37;;;2.30;99.90;;;;;;4998698;28;20178;-80
2022/01/14 02:04:07;;;;;;;0.93;0.47;;;2.40;99.90;;;;;;5014348;28;20693;-79
2022/01/14 02:06:37;;;;;;;0.10;0.10;;;2.30;99.90;;;;;;5015753;28;20188;-79
2022/01/14 02:09:03;;;;;;;2.00;1.90;;;2.30;99.90;;;;;;5016772;28;20180;-79
2022/01/14 02:11:28;;;;;;;0.50;0.50;;;2.30;99.90;;;;;;4998669;28;20192;-79
2022/01/14 02:13:57;;;;;;;0.37;0.37;;;2.30;99.90;;;;;;5017115;28;20295;-80
2022/01/14 02:16:58;;;;;;;1.33;0.20;;;2.30;99.90;;;;;;5016351;28;20683;-80
2022/01/14 02:19:27;;;;;;;1.20;0.47;;;2.30;99.90;;;;;;5021060;28;20186;-79
2022/01/14 02:22:12;;;;;;;0.40;0.40;;;2.20;99.90;;;;;;5019904;28;20179;-79
2022/01/14 02:27:05;;;;;;;0.53;0.30;;;2.10;99.90;;;;;;5020870;28;21154;-79
2022/01/14 02:29:31;;;;;;;0.20;0.20;;;2.20;99.90;;;;;;5001377;28;20175;-78
2022/01/14 02:31:57;;;;;;;0.43;0.43;;;2.20;99.90;;;;;;5019911;28;20198;-78
2022/01/14 02:34:23;;;;;;;0.53;0.53;;;2.20;99.90;;;;;;5001756;28;20175;-78
2022/01/14 02:36:49;;;;;;;0.20;0.20;;;2.30;99.90;;;;;;5019536;28;21182;-78
2022/01/14 02:39:16;;;;;;;0.53;0.53;;;2.30;99.90;;;;;;5001165;28;20645;-79
2022/01/14 02:41:44;;;;;;;0.07;0.07;;;2.30;99.90;;;;;;5000689;28;20722;-78
2022/01/14 02:44:12;;;;;;;0.17;0.13;;;2.30;99.90;;;;;;5018651;28;20194;-78
2022/01/14 02:46:48;;;;;;;0.77;0.50;;;2.30;99.90;;;;;;5017904;28;20210;-80
2022/01/14 02:49:14;;;;;;;0.97;0.57;;;2.40;99.90;;;;;;5018279;28;20294;-79
2022/01/14 02:51:39;;;;;;;0.47;0.30;;;2.30;99.90;;;;;;5020384;28;20191;-79
2022/01/14 02:54:21;;;;;;;0.40;0.30;;;2.30;99.90;;;;;;5017398;28;20529;-79
2022/01/14 02:56:51;;;;;;;0.70;0.67;;;1.90;99.90;;;;;;5017325;28;20210;-78
2022/01/14 02:59:18;;;;;;;0.33;0.33;;;1.20;99.90;;;;;;5017904;28;20181;-79
2022/01/14 03:01:46;;;;;;;0.43;0.30;;;1.30;99.90;;;;;;5018538;28;20175;-79
2022/01/14 03:04:16;;;;;;;0.67;0.67;;;1.20;99.90;;;;;;5002433;28;20184;-80
2022/01/14 03:06:42;;;;;;;0.87;0.60;;;1.20;99.90;;;;;;5019387;28;20606;-80
2022/01/14 03:09:09;;;;;;;0.73;0.40;;;1.50;99.90;;;;;;5019854;28;20649;-79
2022/01/14 03:11:39;;;;;;;1.27;0.50;;;1.70;99.90;;;;;;5001800;28;20267;-80
2022/01/14 03:14:05;;;;;;;0.10;0.10;;;1.90;99.90;;;;;;5019099;28;20187;-79
2022/01/14 03:16:37;;;;;;;1.40;1.03;;;2.10;99.90;;;;;;5017630;28;20216;-79
2022/01/14 03:19:07;;;;;;;0.30;0.10;;;2.10;99.90;;;;;;5020279;28;20175;-79
2022/01/14 03:21:39;;;;;;;0.20;0.20;;;2.20;99.90;;;;;;5018714;28;20184;-79
2022/01/14 03:24:18;;;;;;;0.20;0.20;;;2.20;99.90;;;;;;5019430;28;20235;-79
2022/01/14 03:26:46;;;;;;;0.30;0.30;;;2.20;99.90;;;;;;5018296;28;20261;-80
2022/01/14 03:29:13;;;;;;;2.87;0.30;;;2.30;99.90;;;;;;5017568;28;20174;-79
2022/01/14 03:31:39;;;;;;;0.30;0.30;;;2.40;99.90;;;;;;5010309;28;20675;-79
2022/01/14 03:34:04;;;;;;;0.20;0.20;;;2.30;99.90;;;;;;5000090;28;20207;-79
2022/01/14 03:36:30;;;;;;;0.20;0.20;;;2.30;99.90;;;;;;5002448;28;20184;-79
2022/01/14 03:38:56;;;;;;;0.57;0.57;;;2.10;99.90;;;;;;5000209;28;20200;-79
2022/01/14 03:41:21;;;;;;;0.30;0.30;;;1.80;99.90;;;;;;5001514;28;20189;-79
2022/01/14 03:43:47;;;;;;;0.23;0.23;;;1.90;99.90;;;;;;5018500;28;20928;-79
2022/01/14 03:46:12;;;;;;;0.83;0.17;;;2.00;99.90;;;;;;5002093;28;20195;-79
2022/01/14 03:48:38;;;;;;;0.30;0.30;;;1.60;99.90;;;;;;5018215;28;20290;-79
2022/01/14 03:51:03;;;;;;;0.40;0.40;;;1.70;99.90;;;;;;5002054;28;20187;-78
2022/01/14 03:53:29;;;;;;;0.17;0.17;;;1.90;99.90;;;;;;5018179;28;20192;-79
2022/01/14 03:55:55;;;;;;;0.40;0.40;;;2.00;99.90;;;;;;5017452;28;20250;-79
2022/01/14 03:58:20;;;;;;;0.10;0.10;;;2.10;99.90;;;;;;5016566;28;20593;-79
2022/01/14 04:00:46;;;;;;;0.20;0.20;;;2.20;99.90;;;;;;5000263;28;20223;-79
2022/01/14 04:03:11;;;;;;;0.23;0.23;;;2.20;99.90;;;;;;4999683;28;20226;-81
2022/01/14 04:05:37;;;;;;;0.97;0.43;;;2.20;99.90;;;;;;5018534;28;20198;-79
2022/01/14 04:08:03;;;;;;;0.33;0.30;;;2.30;99.90;;;;;;5018174;28;20207;-78
2022/01/14 04:10:29;;;;;;;0.60;0.47;;;2.40;99.90;;;;;;5000216;28;20193;-78
2022/01/14 04:15:50;;;;;;;0.30;0.30;;;2.20;99.90;;;;;;4995848;28;20591;-78
2022/01/14 04:18:18;;;;;;;0.20;0.20;;;2.30;99.90;;;;;;5017741;28;20208;-78
2022/01/14 04:20:47;;;;;;;0.27;0.27;;;2.30;99.90;;;;;;5016422;28;20189;-79
2022/01/14 04:23:15;;;;;;;0.37;0.37;;;2.20;99.90;;;;;;5001004;28;20217;-80
2022/01/14 04:25:42;;;;;;;0.10;0.10;;;2.30;99.90;;;;;;5018270;28;20606;-79
2022/01/14 04:28:09;;;;;;;0.17;0.17;;;2.30;99.90;;;;;;5000288;28;20698;-79
2022/01/14 04:30:35;;;;;;;0.30;0.30;;;2.30;99.90;;;;;;5000361;28;20184;-79
2022/01/14 04:33:02;;;;;;;0.50;0.50;;;2.20;99.90;;;;;;5017886;28;20193;-79
2022/01/14 04:35:29;;;;;;;0.13;0.13;;;2.10;99.90;;;;;;5016999;28;20229;-79
2022/01/14 04:37:54;;;;;;;0.50;0.50;;;2.10;99.90;;;;;;5015693;28;20274;-80
2022/01/14 04:40:21;;;;;;;0.40;0.40;;;2.10;99.90;;;;;;5018923;28;20269;-79
2022/01/14 04:42:46;;;;;;;0.10;0.10;;;2.10;99.90;;;;;;4999321;28;20216;-78
2022/01/14 04:45:26;;;;;;;0.57;0.37;;;2.10;99.90;;;;;;5001136;28;20186;-78
2022/01/14 04:47:52;;;;;;;0.00;0.00;;;2.10;99.90;;;;;;5032402;28;20306;-78
2022/01/14 04:50:20;;;;;;;0.20;0.20;;;2.10;99.90;;;;;;5010137;28;20234;-78
2022/01/14 04:52:47;;;;;;;0.10;0.10;;;2.10;99.90;;;;;;5011190;28;20218;-78
2022/01/14 04:55:15;;;;;;;0.33;0.33;;;2.10;99.90;;;;;;5008417;28;20192;-78
2022/01/14 04:57:41;;;;;;;0.20;0.20;;;2.00;99.90;;;;;;5012785;28;20228;-79
2022/01/14 05:00:13;;;;;;;0.10;0.10;;;1.90;99.90;;;;;;5019099;28;20210;-77
2022/01/14 05:02:40;;;;;;;0.10;0.10;;;1.80;99.90;;;;;;5000440;28;20221;-78
2022/01/14 05:05:07;;;;;;;0.23;0.20;;;1.60;99.90;;;;;;5008966;28;20254;-78
2022/01/14 05:07:33;;;;;;;0.33;0.30;;;1.50;99.90;;;;;;5018340;28;20234;-78
2022/01/14 05:12:27;;;;;;;0.17;0.13;;;1.40;99.90;;;;;;5017492;28;20178;-78
2022/01/14 05:14:53;;;;;;;0.67;0.67;;;1.40;99.90;;;;;;4997160;28;20211;-78
2022/01/14 05:17:19;;;;;;;0.20;0.20;;;1.50;99.90;;;;;;5014998;28;20280;-78
2022/01/14 05:19:44;;;;;;;0.30;0.30;;;1.60;99.90;;;;;;5015248;28;20262;-78
2022/01/14 05:22:10;;;;;;;0.20;0.20;;;1.50;99.90;;;;;;5016276;28;20198;-78
2022/01/14 05:24:35;;;;;;;0.10;0.10;;;1.50;99.90;;;;;;5015876;28;20194;-78
2022/01/14 05:27:01;;;;;;;0.40;0.40;;;1.60;99.90;;;;;;4998625;28;20196;-78
2022/01/14 05:29:26;;;;;;;1.13;0.47;;;1.50;99.90;;;;;;4998223;28;20925;-78
2022/01/14 05:32:01;;;;;;;0.20;0.20;;;1.30;99.90;;;;;;5015782;28;20194;-78
2022/01/14 05:34:26;;;;;;;0.10;0.10;;;1.40;99.90;;;;;;5015118;28;20241;-78
2022/01/14 05:36:52;;;;;;;0.10;0.10;;;1.50;99.90;;;;;;5015182;28;20605;-78
2022/01/14 05:39:20;;;;;;;0.47;0.47;;;1.30;99.90;;;;;;5015620;28;20257;-78
2022/01/14 05:41:46;;;;;;;1.23;0.30;;;1.40;99.90;;;;;;4997381;28;20210;-78
2022/01/14 05:44:11;;;;;;;0.37;0.37;;;1.30;99.90;;;;;;5016649;28;20209;-78
2022/01/14 05:46:37;;;;;;;0.10;0.10;;;1.00;99.90;;;;;;4997995;28;20268;-79
2022/01/14 05:49:03;;;;;;;0.53;0.30;;;1.10;99.90;;;;;;5016427;28;20182;-78
2022/01/14 05:51:28;;;;;;;0.27;0.27;;;1.20;99.90;;;;;;5015934;28;20664;-79
2022/01/14 05:53:54;;;;;;;1.90;0.23;;;1.00;99.90;;;;;;5019161;28;20305;-79
2022/01/14 05:56:19;;;;;;;0.27;0.27;;;0.90;99.90;;;;;;5017670;28;20248;-78
2022/01/14 05:58:45;;;;;;;0.23;0.23;;;0.80;99.90;;;;;;5019948;28;20183;-78
2022/01/14 06:01:10;;;;;;;1.27;1.00;;;1.00;99.90;;;;;;5018280;28;20186;-78
2022/01/14 06:03:36;;;;;;;0.20;0.20;;;1.10;99.90;;;;;;5016956;28;20596;-78
2022/01/14 06:06:02;;;;;;;0.10;0.10;;;1.20;99.90;;;;;;5001540;28;20230;-79
2022/01/14 06:08:27;;;;;;;0.00;0.00;;;1.30;99.90;;;;;;5017747;28;20584;-78
2022/01/14 06:10:53;;;;;;;0.27;0.27;;;1.30;99.90;;;;;;5020566;28;20186;-78
2022/01/14 06:13:18;;;;;;;0.07;0.07;;;1.30;99.90;;;;;;4998881;28;20185;-79
2022/01/14 06:15:44;;;;;;;1.23;1.23;;;1.20;99.90;;;;;;5017993;28;20201;-79
2022/01/14 06:18:09;;;;;;;0.10;0.10;;;0.80;99.90;;;;;;5017624;28;20219;-78
2022/01/14 06:20:35;;;;;;;0.10;0.10;;;0.70;99.90;;;;;;5018594;28;20237;-79
2022/01/14 06:23:00;;;;;;;0.67;0.63;;;0.80;99.90;;;;;;5015432;28;20229;-79
2022/01/14 06:25:26;;;;;;;0.43;0.43;;;0.90;99.90;;;;;;5014578;28;20230;-79
2022/01/14 06:27:52;;;;;;;0.10;0.10;;;1.10;99.90;;;;;;5019013;28;20302;-79
2022/01/14 06:30:17;;;;;;;0.20;0.20;;;1.20;99.90;;;;;;5018955;28;20183;-77
2022/01/14 06:32:43;;;;;;;0.20;0.20;;;1.20;99.90;;;;;;5018591;28;20193;-78
2022/01/14 06:35:14;;;;;;;0.33;0.23;;;1.10;99.90;;;;;;5019739;28;20191;-78
2022/01/14 06:37:40;;;;;;;0.30;0.30;;;1.20;99.90;;;;;;5016184;28;20207;-79
2022/01/14 06:40:07;;;;;;;0.00;0.00;;;1.20;99.90;;;;;;5000564;28;20195;-79
2022/01/14 06:42:32;;;;;;;0.10;0.10;;;1.20;99.90;;;;;;5016641;28;20577;-79
2022/01/14 06:44:59;;;;;;;0.10;0.10;;;1.20;99.90;;;;;;5000318;28;20184;-78
2022/01/14 06:47:25;;;;;;;0.10;0.10;;;1.40;99.90;;;;;;5014550;28;20211;-79
2022/01/14 06:49:51;;;;;;;0.10;0.10;;;1.30;99.90;;;;;;5016592;28;20193;-79
2022/01/14 06:52:17;;;;;;;0.30;0.30;;;1.40;99.90;;;;;;5014652;28;20187;-79
2022/01/14 06:54:43;;;;;;;0.30;0.30;;;1.50;99.90;;;;;;4996875;28;20854;-79
2022/01/14 06:57:08;;;;;;;0.20;0.20;;;1.60;99.90;;;;;;4996164;28;20297;-79
2022/01/14 06:59:34;;;;;;;0.00;0.00;;;1.50;99.90;;;;;;5016611;28;20194;-79
2022/01/14 07:02:00;;;;;;;0.23;0.23;;;1.60;99.90;;;;;;4997461;28;20204;-79
2022/01/14 07:04:26;;;;;;;0.60;0.20;;;1.60;99.90;;;;;;5015295;28;20183;-79
2022/01/14 07:06:51;;;;;;;0.10;0.10;;;1.60;99.90;;;;;;5006906;28;20210;-78
2022/01/14 07:09:17;;;;;;;0.10;0.10;;;1.30;99.90;;;;;;4997176;28;20533;-78
2022/01/14 07:11:47;;;;;;;0.10;0.10;;;1.20;99.90;;;;;;5017063;28;20533;-78
2022/01/14 07:14:12;;;;;;;0.37;0.37;;;1.20;99.90;;;;;;5018632;28;20553;-78
2022/01/14 07:16:38;;;;;;;0.53;0.53;;;1.10;99.90;;;;;;5017457;28;20211;-78
2022/01/14 07:19:04;;;;;;;0.87;0.20;;;0.90;99.90;;;;;;5000014;28;20217;-78
2022/01/14 07:21:29;;;;;;;0.40;0.40;;;1.00;99.90;;;;;;5017813;28;20191;-79
2022/01/14 07:23:55;;;;;;;0.67;0.47;;;1.20;99.90;;;;;;5016408;28;20210;-78
2022/01/14 07:26:21;;;;;;;0.10;0.10;;;1.40;99.90;;;;;;5015691;28;20209;-78
2022/01/14 07:28:47;;;;;;;0.37;0.37;;;1.50;99.90;;;;;;5016491;28;20210;-78
2022/01/14 07:31:12;;;;;;;0.57;0.30;;;1.60;99.90;;;;;;5016987;28;20230;-79
2022/01/14 07:33:38;;;;;;;0.50;0.40;;;1.60;99.90;;;;;;5016531;28;20194;-79
2022/01/14 07:36:04;;;;;;;0.10;0.10;;;1.60;99.90;;;;;;4999327;28;20627;-80
2022/01/14 07:38:29;;;;;;;0.17;0.17;;;1.70;99.90;;;;;;5016757;28;20214;-78
2022/01/14 07:40:55;;;;;;;0.10;0.10;;;1.60;99.90;;;;;;4999864;28;20217;-78
2022/01/14 07:43:21;;;;;;;0.30;0.30;;;1.60;99.90;;;;;;5000525;28;20222;-78
2022/01/14 07:45:48;;;;;;;0.63;0.63;;;1.60;99.90;;;;;;5017785;28;20209;-78
2022/01/14 07:48:14;;;;;;;0.27;0.27;;;1.50;99.90;;;;;;5017085;28;20296;-78
2022/01/14 07:50:40;;;;;;;0.10;0.10;;;1.60;99.90;;;;;;5015078;28;20194;-78
2022/01/14 07:53:06;;;;;;;1.23;0.20;;;1.30;99.90;;;;;;4999849;28;20187;-78
2022/01/14 07:55:31;;;;;;;0.83;0.70;;;1.20;99.90;;;;;;4997295;28;20186;-78
2022/01/14 07:57:57;;;;;;;0.47;0.47;;;0.90;99.90;;;;;;5016771;28;20627;-79
2022/01/14 08:00:23;;;;;;;0.40;0.37;;;0.80;99.90;;;;;;5016217;28;20227;-78
2022/01/14 08:02:48;;;;;;;2.17;0.93;;;0.70;99.90;;;;;;5014818;28;20203;-78
2022/01/14 08:05:15;;;;;;;0.20;0.20;;;0.80;99.90;;;;;;5017832;28;20224;-78
2022/01/14 08:07:46;;;;;;;0.63;0.63;;;1.10;99.90;;;;;;5019812;28;20198;-78
2022/01/14 08:10:13;;;;;;;0.30;0.30;;;1.30;99.90;;;;;;5015219;28;20166;-79
2022/01/14 08:12:40;;;;;;;0.10;0.10;;;1.10;99.90;;;;;;4998936;28;20185;-78
2022/01/14 08:15:07;;;;;;;0.10;0.10;;;1.10;99.90;;;;;;5005568;28;20195;-78
2022/01/14 08:17:33;;;;;;;0.20;0.17;;;1.40;99.90;;;;;;5017766;28;20211;-78
2022/01/14 08:19:58;;;;;;;0.40;0.33;;;1.60;99.90;;;;;;4998272;28;20677;-78
2022/01/14 08:22:24;;;;;;;0.30;0.30;;;1.70;99.90;;;;;;5015484;28;20222;-79
2022/01/14 08:24:49;;;;;;;0.20;0.20;;;1.80;99.90;;;;;;5016534;28;20192;-78
2022/01/14 08:27:15;;;;;;;0.33;0.33;;;1.80;99.90;;;;;;5015824;28;20211;-78
2022/01/14 08:29:41;;;;;;;0.20;0.10;;;2.00;99.90;;;;;;4995733;28;20287;-78
2022/01/14 08:32:07;;;;;;;0.50;0.50;;;2.00;99.90;;;;;;4998276;28;20196;-79
2022/01/14 08:34:32;;;;;;;0.20;0.20;;;2.10;99.90;;;;;;4999015;28;20186;-79
2022/01/14 08:36:58;;;;;;;0.50;0.50;;;2.10;99.90;;;;;;5018546;28;20222;-79
2022/01/14 08:39:24;;;;;;;0.23;0.23;;;2.10;99.90;;;;;;5017896;28;20200;-79
2022/01/14 08:41:50;;;;;;;0.20;0.20;;;2.00;99.90;;;;;;5016756;28;21131;-79
2022/01/14 08:44:16;;;;;;;0.10;0.10;;;2.00;99.90;;;;;;5018360;28;20206;-78
2022/01/14 08:46:42;;;;;;;0.83;0.20;;;2.00;99.90;;;;;;5014476;28;20204;-78
2022/01/14 08:49:09;;;;;;;0.33;0.33;;;2.00;99.90;;;;;;4999843;28;20207;-81
2022/01/14 08:51:36;;;;;;;0.10;0.10;;;2.00;99.90;;;;;;5016316;28;20183;-80
2022/01/14 08:54:02;;;;;;;0.00;0.00;;;1.90;99.90;;;;;;4999405;28;20183;-81
2022/01/14 08:56:30;;;;;;;1.13;0.23;;;1.70;99.90;;;;;;5018138;28;20183;-80
2022/01/14 08:58:56;;;;;;;0.83;0.30;;;1.80;99.90;;;;;;5018637;28;20232;-80
2022/01/14 09:01:21;;;;;;;0.57;0.57;;;1.80;99.90;;;;;;5014989;28;20199;-81
2022/01/14 09:03:47;;;;;;;1.03;0.40;;;1.80;99.90;;;;;;5015752;28;20209;-80
2022/01/14 09:06:12;;;;;;;0.33;0.33;;;1.80;99.90;;;;;;5014233;28;20183;-80
2022/01/14 09:08:39;;;;;;;0.23;0.23;;;1.90;99.90;;;;;;4997055;28;20273;-80
2022/01/14 09:11:07;;;;;;;0.23;0.23;;;2.10;99.90;;;;;;4999796;28;20643;-80
2022/01/14 09:13:33;;;;;;;0.00;0.00;;;2.10;99.90;;;;;;4998833;28;20278;-80
2022/01/14 09:15:59;;;;;;;0.00;0.00;;;2.10;99.90;;;;;;5014522;28;20272;-80
2022/01/14 09:18:25;;;;;;;0.70;0.47;;;2.10;99.90;;;;;;5014528;28;20218;-80
2022/01/14 09:20:50;;;;;;;0.03;0.03;;;2.10;99.90;;;;;;4999329;28;20617;-81
2022/01/14 09:23:23;;;;;;;0.43;0.43;;;2.20;99.90;;;;;;4996143;28;20211;-81
2022/01/14 09:25:49;;;;;;;0.10;0.10;;;2.20;99.90;;;;;;5012320;28;20191;-80
2022/01/14 09:28:15;;;;;;;0.17;0.17;;;2.20;99.90;;;;;;4997394;28;20210;-79
2022/01/14 09:30:40;;;;;;;0.30;0.30;;;2.20;99.90;;;;;;5015093;28;20654;-80
2022/01/14 09:33:06;;;;;;;0.10;0.10;;;2.30;99.90;;;;;;5016481;28;20191;-80
2022/01/14 09:35:32;;;;;;;0.30;0.20;;;2.30;99.90;;;;;;5016173;28;20183;-80
2022/01/14 09:37:58;;;;;;;0.27;0.27;;;2.30;99.90;;;;;;5013611;28;20215;-77
2022/01/14 09:40:24;;;;;;;0.33;0.33;;;2.40;99.90;;;;;;5015486;28;20606;-77
2022/01/14 09:42:51;;;;;;;0.43;0.43;;;2.50;99.90;;;;;;4999314;28;20263;-77
2022/01/14 09:45:18;;;;;;;0.83;0.30;;;2.50;99.90;;;;;;5000073;28;20176;-77
2022/01/14 09:47:47;;;;;;;0.10;0.10;;;2.50;99.90;;;;;;5015667;28;20286;-80
2022/01/14 09:50:12;;;;;;;0.53;0.53;;;2.40;99.90;;;;;;5018168;28;20202;-81
2022/01/14 09:52:38;;;;;;;0.20;0.20;;;2.50;99.90;;;;;;5014231;28;20661;-79
2022/01/14 09:55:04;;;;;;;0.33;0.33;;;2.50;99.90;;;;;;4996256;28;20215;-80
2022/01/14 09:57:30;;;;;;;0.23;0.23;;;2.50;99.90;;;;;;5014778;28;20208;-80
2022/01/14 09:59:55;;;;;;;0.37;0.37;;;2.10;99.90;;;;;;5014749;28;20225;-80
2022/01/14 10:02:29;;;;;;;1.10;0.50;;;2.10;99.90;;;;;;5015519;28;20210;-81
2022/01/14 10:04:54;;;;;;;0.10;0.10;;;2.30;99.90;;;;;;5011416;28;20192;-80
2022/01/14 10:07:20;;;;;;;0.10;0.10;;;2.30;99.90;;;;;;5016759;28;20212;-80
2022/01/14 10:09:54;;;;;;;0.20;0.20;;;2.30;99.90;;;;;;5016125;28;20189;-80
2022/01/14 10:12:20;;;;;;;0.33;0.33;;;2.30;99.90;;;;;;5000438;28;20172;-81
2022/01/14 10:14:56;;;;;;;0.10;0.10;;;2.50;99.90;;;;;;5018065;28;20180;-81
2022/01/14 10:17:23;;;;;;;0.13;0.13;;;2.60;99.90;;;;;;5018748;28;20207;-80
2022/01/14 10:19:48;;;;;;;0.10;0.10;;;2.50;99.90;;;;;;5018247;28;20188;-80
2022/01/14 10:22:23;;;;;;;0.30;0.30;;;2.60;99.90;;;;;;5017169;28;20184;-81
2022/01/14 10:25:05;;;;;;;0.33;0.33;;;2.80;99.90;;;;;;4996674;28;20175;-80
2022/01/14 10:27:40;;;;;;;0.30;0.30;;;2.90;99.90;;;;;;5018576;28;20205;-81
2022/01/14 10:30:33;;;;;;;0.20;0.20;;;2.90;99.90;;;;;;5000410;28;20232;-81
2022/01/14 10:33:07;;;;;;;0.10;0.10;;;2.90;99.90;;;;;;5015542;28;20211;-80
2022/01/14 10:35:41;;;;;;;0.10;0.10;;;3.00;99.90;;;;;;5005058;28;20186;-80
2022/01/14 10:38:08;;;;;;;0.70;0.30;;;3.10;99.90;;;;;;5017935;28;20288;-81
2022/01/14 10:40:38;;;;;;;0.73;0.73;;;3.20;99.90;;;;;;4999396;28;20184;-80
2022/01/14 10:43:08;;;;;;;0.47;0.47;;;3.30;99.90;;;;;;5017417;28;20216;-81
2022/01/14 10:45:35;;;;;;;0.37;0.37;;;3.40;99.90;;;;;;4999099;28;20719;-80
2022/01/14 10:48:07;;;;;;;0.20;0.20;;;3.40;99.90;;;;;;5018883;28;20698;-80
2022/01/14 10:50:43;;;;;;;0.30;0.30;;;3.30;99.90;;;;;;5018342;28;20219;-80
2022/01/14 10:53:16;;;;;;;0.33;0.33;;;3.40;99.90;;;;;;5000262;28;20208;-80
2022/01/14 10:55:58;;;;;;;0.30;0.30;;;3.40;99.90;;;;;;5001001;28;20194;-79
2022/01/14 10:58:29;;;;;;;0.13;0.13;;;3.50;99.90;;;;;;4998735;28;20233;-80
2022/01/14 11:00:59;;;;;;;0.17;0.17;;;3.50;99.90;;;;;;5000214;28;20194;-80
2022/01/14 11:03:48;;;;;;;1.47;0.50;;;3.00;99.90;;;;;;5001518;28;20284;-80
2022/01/14 11:06:38;;;;;;;0.10;0.10;;;2.40;99.90;;;;;;5021668;28;20184;-80
2022/01/14 11:09:13;;;;;;;0.10;0.10;;;2.80;99.90;;;;;;5022753;28;20174;-81
2022/01/14 11:11:44;;;;;;;0.10;0.10;;;3.00;99.90;;;;;;5021376;28;20185;-80
2022/01/14 11:14:10;;;;;;;0.60;0.60;;;3.30;99.90;;;;;;5003870;28;20182;-80
2022/01/14 11:16:36;;;;;;;0.27;0.27;;;3.40;99.90;;;;;;5020066;28;20189;-79
2022/01/14 11:19:03;;;;;;;0.10;0.10;;;3.60;99.90;;;;;;5019894;28;20729;-79
2022/01/14 11:24:27;;;;;;;0.40;0.40;;;3.70;99.90;;;;;;5020122;28;20227;-80
2022/01/14 11:27:05;;;;;;;0.63;0.33;;;3.70;99.90;;;;;;5023779;28;20216;-80
2022/01/14 11:29:34;;;;;;;0.33;0.33;;;3.80;99.90;;;;;;5021793;28;20194;-80
2022/01/14 11:32:03;;;;;;;0.50;0.50;;;3.70;99.90;;;;;;5003626;28;20224;-80
2022/01/14 11:34:48;;;;;;;0.20;0.20;;;3.80;99.90;;;;;;4999553;28;20189;-79
2022/01/14 11:37:28;;;;;;;0.20;0.20;;;3.80;99.90;;;;;;5003025;28;20205;-80
2022/01/14 11:40:03;;;;;;;0.10;0.10;;;3.10;99.90;;;;;;5018099;28;20200;-80
2022/01/14 11:42:41;;;;;;;0.87;0.87;;;3.00;99.90;;;;;;5022254;28;20206;-81
2022/01/14 11:45:07;;;;;;;1.13;1.03;;;3.30;99.90;;;;;;4999425;28;20797;-81
2022/01/14 11:47:44;;;;;;;0.67;0.63;;;3.50;99.90;;;;;;5001263;28;20687;-78
2022/01/14 11:50:19;;;;;;;0.30;0.30;;;3.60;99.90;;;;;;5017859;28;20226;-78
2022/01/14 11:52:46;;;;;;;0.83;0.47;;;3.90;99.90;;;;;;5018222;28;20231;-79
2022/01/14 11:55:15;;;;;;;0.80;0.80;;;4.10;99.90;;;;;;5021063;28;20198;-79
2022/01/14 11:57:45;;;;;;;0.27;0.27;;;4.10;99.90;;;;;;5019486;28;20219;-80
2022/01/14 12:00:33;;;;;;;1.10;0.83;;;4.10;99.90;;;;;;5021782;28;21008;-80
2022/01/14 12:03:11;;;;;;;0.37;0.37;;;4.10;99.90;;;;;;5022602;28;20353;-80
2022/01/14 12:05:59;;;;;;;0.97;0.60;;;3.90;99.90;;;;;;5014709;28;20224;-79
2022/01/14 12:08:31;;;;;;;0.87;0.73;;;3.80;99.90;;;;;;5035704;28;20228;-79
2022/01/14 12:11:20;;;;;;;0.57;0.43;;;3.80;99.90;;;;;;5032938;28;20188;-79
2022/01/14 12:13:56;;;;;;;0.27;0.27;;;3.80;99.90;;;;;;5005229;28;20204;-80
2022/01/14 12:18:59;;;;;;;0.40;0.40;;;3.90;99.90;;;;;;5015397;28;20282;-80
2022/01/14 12:21:42;;;;;;;0.43;0.43;;;4.10;99.90;;;;;;4999097;28;20292;-79
2022/01/14 12:24:21;;;;;;;3.70;0.87;;;4.00;99.90;;;;;;5018713;28;20211;-79
2022/01/14 12:26:52;;;;;;;0.20;0.20;;;3.90;99.90;;;;;;5015095;28;20296;-81
2022/01/14 12:29:20;;;;;;;0.77;0.40;;;4.00;99.90;;;;;;5015723;28;20190;-79
2022/01/14 12:32:06;;;;;;;0.20;0.20;;;3.90;99.90;;;;;;5014964;28;20185;-80
2022/01/14 12:34:35;;;;;;;0.23;0.23;;;4.00;99.90;;;;;;4998193;28;20190;-79
2022/01/14 12:37:01;;;;;;;0.40;0.40;;;4.10;99.90;;;;;;5013914;28;20211;-79
2022/01/14 12:39:27;;;;;;;1.03;0.40;;;4.00;99.90;;;;;;5015628;28;20687;-79
2022/01/14 12:41:55;;;;;;;0.63;0.50;;;3.90;99.90;;;;;;4999622;28;20196;-81
2022/01/14 12:44:22;;;;;;;0.20;0.20;;;4.00;99.90;;;;;;4997438;28;20223;-80
2022/01/14 12:46:58;;;;;;;0.60;0.40;;;4.10;99.90;;;;;;5016992;28;20212;-80
2022/01/14 12:49:26;;;;;;;2.00;1.43;;;4.10;99.90;;;;;;5015636;28;20181;-79
2022/01/14 12:52:07;;;;;;;3.23;0.73;;;4.10;99.90;;;;;;4996720;28;20207;-79
2022/01/14 12:54:44;;;;;;;1.80;1.03;;;4.00;99.90;;;;;;5015089;28;20668;-80
2022/01/14 12:57:14;;;;;;;1.33;0.93;;;4.00;99.90;;;;;;5016518;28;20200;-79
2022/01/14 12:59:49;;;;;;;1.07;0.60;;;4.00;99.90;;;;;;5014308;28;20176;-81
2022/01/14 13:02:23;;;;;;;0.40;0.40;;;3.20;99.90;;;;;;5017786;28;20318;-80
2022/01/14 13:05:08;;;;;;;0.20;0.20;;;3.50;99.90;;;;;;5015644;28;20654;-79
2022/01/14 13:07:35;;;;;;;0.77;0.60;;;3.80;99.90;;;;;;5016066;28;20211;-79
2022/01/14 13:10:02;;;;;;;0.53;0.53;;;3.90;99.90;;;;;;4995328;28;20594;-79
2022/01/14 13:12:33;;;;;;;0.37;0.27;;;3.90;99.90;;;;;;5000683;28;20749;-79
2022/01/14 13:15:04;;;;;;;0.23;0.20;;;4.00;99.90;;;;;;5014960;28;20224;-79
2022/01/14 13:17:33;;;;;;;1.33;1.10;;;4.00;99.90;;;;;;4998796;28;20205;-79
2022/01/14 13:20:04;;;;;;;0.20;0.20;;;3.90;99.90;;;;;;5017791;28;20182;-79
2022/01/14 13:22:31;;;;;;;2.33;0.37;;;4.00;99.90;;;;;;5016986;28;20202;-80
2022/01/14 13:25:00;;;;;;;0.37;0.37;;;4.10;99.90;;;;;;5018593;28;20195;-81
2022/01/14 13:27:26;;;;;;;0.20;0.20;;;4.20;99.90;;;;;;5017425;28;20211;-79
2022/01/14 13:29:59;;;;;;;0.27;0.27;;;4.20;99.90;;;;;;5016424;28;20188;-79
2022/01/14 13:32:29;;;;;;;0.23;0.23;;;4.20;99.90;;;;;;5017020;28;20185;-79